首页
METAR-TAF:

METAR-TAF

机场 :

托尔马切沃机场

新西伯利亚, 俄罗斯

纬度: 55-01N, 经度: 082-38E, 海拔: 111米

当前天气观测

该预报发布于29分钟前的15:00 UTC
风速4节,风向东转东北
温度 17°C
湿度 77%
气压 1010 hPa
能見度: 9000

METAR: UNNT 161500Z 06002MPS 9000 NSC 17/13 Q1010 R25/090070 R16/090070 NOSIG RMK QFE748/0997

时间: 22:29 (15:29 UTC)

预报

该预报发布于51分钟前的14:38 UTC
预报有效从16日的 15点(UTC)到 17日的 15点(UTC)
风速6节,风向东北
能見度: 4000
烟, 轻雾
短暂存在
从 16日的 15点(UTC)到 16日的 18点(UTC)
能見度: 1500
烟, 轻雾
短暂存在
从 16日的 18点(UTC)到 17日的 01点(UTC)
能見度: 0600
雾, 烟
从 17日的 0100点(UTC)
风速6节,风向北转东北
能见度10公里或以上
1500米以下无云,无积雨云

TAF: UNNT 161438Z 1615/1715 05003MPS 4000 FU BR NSC TEMPO 1615/1618 1500 FU BR TEMPO 1618/1701 0600 FG FU FM170100 03003MPS CAVOK

超过4000个机场的气象观测和天气预报(METAR&TAF报告)。

可查询的气象台以黄色和红色小点在地图上表示。

将鼠标移到小点上方,可查看气象台名称。

然后点击查看天气观测和预报。

如需切换地图:点击带黑十字的绿色按钮放大地图;点击带横线的绿色按钮缩小地图;或者点击绿色箭头查看邻近地区的地图。


METAR-TAF: